Terminal Aerodrome Forecast
Issued by NWS Amarillo, TX

Home | Current Version | Previous Version | Text Only | Print | Product List | Glossary On
Versions: 1 2 3 4 5 6 7 8 9 10 11 12 13
000
FTUS44 KAMA 290520
TAFDHT
TAF
KDHT 290520Z 2906/3006 17010KT P6SM BKN250
     FM290800 02010KT P6SM BKN060
     FM291600 10010KT P6SM SCT250
     FM292000 16010KT P6SM SCT080=

USA.gov is the U.S. government's official web portal to all federal, state and local government web resources and services.